createdAt,value
2018-10-18T00:01:26.505Z,96758.00
2018-10-18T00:03:53.736Z,96761.28
2018-10-18T00:06:20.985Z,96761.37
2018-10-18T00:08:48.210Z,96763.28
2018-10-18T00:11:15.477Z,96762.66
2018-10-18T00:13:42.740Z,96751.81
2018-10-18T00:16:10.046Z,96759.74
2018-10-18T00:18:37.318Z,96759.91
2018-10-18T00:21:04.789Z,96760.53
2018-10-18T00:23:32.099Z,96754.25
2018-10-18T00:25:59.501Z,96756.41
2018-10-18T00:28:26.896Z,96757.48
2018-10-18T00:30:54.284Z,96764.36
2018-10-18T00:33:21.586Z,96756.78
2018-10-18T00:35:48.858Z,96757.41
2018-10-18T00:38:16.207Z,96758.33
2018-10-18T00:40:43.511Z,96758.55
2018-10-18T00:43:10.896Z,96761.16
2018-10-18T00:45:38.213Z,96757.24
2018-10-18T00:48:05.662Z,96756.88
2018-10-18T00:50:32.929Z,96753.58
2018-10-18T00:53:00.401Z,96751.12
2018-10-18T00:55:27.723Z,96749.17
2018-10-18T00:57:55.042Z,96724.20
2018-10-18T01:00:22.326Z,96751.03
2018-10-18T01:02:49.652Z,96753.33
2018-10-18T01:05:17.562Z,96750.19
2018-10-18T01:07:44.910Z,96754.83
2018-10-18T01:10:12.198Z,96750.55
2018-10-18T01:14:09.049Z,96749.23
2018-10-18T01:16:36.371Z,96746.95
2018-10-18T01:19:03.736Z,96748.93
2018-10-18T01:21:31.122Z,96751.81
2018-10-18T01:23:58.397Z,96749.06
2018-10-18T01:26:25.751Z,96745.55
2018-10-18T01:28:53.019Z,96750.52
2018-10-18T01:31:20.327Z,96744.86
2018-10-18T01:33:47.568Z,96746.05
2018-10-18T01:36:15.348Z,96743.61
2018-10-18T01:38:42.597Z,96741.52
2018-10-18T01:41:09.941Z,96740.88
2018-10-18T01:43:37.333Z,96736.10
2018-10-18T01:46:05.185Z,96743.22
2018-10-18T01:48:32.438Z,96744.13
2018-10-18T01:50:59.702Z,96741.41
2018-10-18T01:53:26.964Z,96738.87
2018-10-18T01:55:54.380Z,96733.66
2018-10-18T01:58:21.596Z,96732.84
2018-10-18T02:00:48.910Z,96742.18
2018-10-18T02:03:16.248Z,96738.67
2018-10-18T02:05:43.644Z,96734.98
2018-10-18T02:08:11.006Z,96733.13
2018-10-18T02:10:38.269Z,96734.23
2018-10-18T02:13:05.666Z,96737.16
2018-10-18T02:15:32.945Z,96740.33
2018-10-18T02:18:00.257Z,96742.53
2018-10-18T02:20:27.627Z,96742.09
2018-10-18T02:22:54.951Z,96741.02
2018-10-18T02:25:22.319Z,96707.91
2018-10-18T02:27:49.543Z,96741.09
2018-10-18T02:30:16.840Z,96736.16
2018-10-18T02:32:44.093Z,96734.89
2018-10-18T02:35:11.376Z,96734.34
2018-10-18T02:37:38.668Z,96731.11
2018-10-18T02:40:06.068Z,96707.87
2018-10-18T02:42:33.349Z,96735.34
2018-10-18T02:45:00.663Z,96734.08
2018-10-18T02:47:27.930Z,96735.43
2018-10-18T02:49:55.231Z,96738.89
2018-10-18T02:52:22.610Z,96735.61
2018-10-18T02:54:49.978Z,96735.28
2018-10-18T02:57:17.250Z,96740.91
2018-10-18T02:59:44.597Z,96735.96
2018-10-18T03:02:11.927Z,96742.22
2018-10-18T03:04:39.211Z,96744.05
2018-10-18T03:07:07.137Z,96742.69
2018-10-18T03:09:34.428Z,96741.27
2018-10-18T03:12:02.538Z,96740.23
2018-10-18T03:14:29.982Z,96744.20
2018-10-18T03:16:57.319Z,96736.88
2018-10-18T03:19:24.926Z,96735.11
2018-10-18T03:21:52.177Z,96738.08
2018-10-18T03:24:19.564Z,96739.25
2018-10-18T03:26:46.704Z,96742.17
2018-10-18T03:29:13.969Z,96734.80
2018-10-18T03:31:41.301Z,96743.27
2018-10-18T03:34:08.555Z,96741.42
2018-10-18T03:36:35.856Z,96742.22
2018-10-18T03:39:05.265Z,96740.77
2018-10-18T03:41:32.770Z,96738.81
2018-10-18T03:44:00.082Z,96742.77
2018-10-18T03:46:27.385Z,96741.81
2018-10-18T03:48:54.622Z,96740.70
2018-10-18T03:51:21.925Z,96743.72
2018-10-18T03:53:49.184Z,96745.21
2018-10-18T03:56:16.492Z,96745.21
2018-10-18T03:58:43.820Z,96745.67
2018-10-18T04:01:11.082Z,96742.24
2018-10-18T04:03:39.212Z,96747.28
2018-10-18T04:06:06.574Z,96745.95
2018-10-18T04:08:33.844Z,96750.50
2018-10-18T04:11:01.141Z,96746.34
2018-10-18T04:13:28.456Z,96744.00
2018-10-18T04:15:55.780Z,96753.19
2018-10-18T04:18:23.142Z,96752.28
2018-10-18T04:20:50.432Z,96754.16
2018-10-18T04:23:23.210Z,96755.83
2018-10-18T04:25:50.556Z,96754.47
2018-10-18T04:28:17.845Z,96753.95
2018-10-18T04:30:45.135Z,96756.98
2018-10-18T04:33:12.403Z,96754.17
2018-10-18T04:35:39.720Z,96756.05
2018-10-18T04:38:38.292Z,96758.17
2018-10-18T04:41:05.623Z,96757.53
2018-10-18T04:43:32.898Z,96758.68
2018-10-18T04:46:00.335Z,96765.27
2018-10-18T04:48:27.721Z,96764.17
2018-10-18T04:50:54.843Z,96766.14
2018-10-18T04:53:22.175Z,96761.25
2018-10-18T04:55:49.412Z,96764.90
2018-10-18T04:58:16.752Z,96765.28
2018-10-18T05:00:44.084Z,96770.86
2018-10-18T05:03:11.406Z,96768.60
2018-10-18T05:05:46.882Z,96768.09
2018-10-18T05:08:14.147Z,96774.77
2018-10-18T05:10:41.436Z,96775.70
2018-10-18T05:13:08.695Z,96777.81
2018-10-18T05:15:35.996Z,96778.88
2018-10-18T05:18:03.328Z,96773.10
2018-10-18T05:20:30.612Z,96772.81
2018-10-18T05:22:57.901Z,96775.33
2018-10-18T05:25:25.309Z,96775.31
2018-10-18T05:27:52.527Z,96778.56
2018-10-18T05:30:19.766Z,96781.62
2018-10-18T05:32:46.987Z,96781.71
2018-10-18T05:35:14.160Z,96784.59
2018-10-18T05:37:41.490Z,96783.57
2018-10-18T05:40:08.827Z,96788.51
2018-10-18T05:42:36.097Z,96789.15
2018-10-18T05:45:03.900Z,96790.58
2018-10-18T05:47:31.220Z,96796.52
2018-10-18T05:49:58.643Z,96799.41
2018-10-18T05:52:26.131Z,96802.40
2018-10-18T05:54:53.419Z,96798.00
2018-10-18T05:57:22.235Z,96806.60
2018-10-18T05:59:49.546Z,96808.20
2018-10-18T06:02:16.845Z,96811.72
2018-10-18T06:04:44.486Z,96819.39
2018-10-18T06:07:11.982Z,96810.15
2018-10-18T06:09:39.268Z,96817.86
2018-10-18T06:12:06.701Z,96823.58
2018-10-18T06:14:34.006Z,96819.66
2018-10-18T06:17:01.470Z,96828.42
2018-10-18T06:19:28.804Z,96828.85
2018-10-18T06:21:56.377Z,96825.80
2018-10-18T06:24:24.242Z,96827.64
2018-10-18T06:26:51.915Z,96826.82
2018-10-18T06:29:19.452Z,96835.95
2018-10-18T06:31:46.787Z,96835.09
2018-10-18T06:34:14.141Z,96837.53
2018-10-18T06:36:41.437Z,96844.06
2018-10-18T06:39:10.044Z,96839.48
2018-10-18T06:41:38.294Z,96840.06
2018-10-18T06:44:05.730Z,96846.30
2018-10-18T06:46:33.273Z,96844.47
2018-10-18T06:49:00.899Z,96845.94
2018-10-18T06:51:28.343Z,96844.94
2018-10-18T06:53:55.943Z,96844.60
2018-10-18T06:56:23.445Z,96848.72
2018-10-18T06:58:50.954Z,96848.91
2018-10-18T07:01:18.460Z,96847.88
2018-10-18T07:03:46.215Z,96854.19
2018-10-18T07:06:13.793Z,96854.45
2018-10-18T07:08:40.902Z,96852.34
2018-10-18T07:11:08.362Z,96851.48
2018-10-18T07:13:35.647Z,96859.86
2018-10-18T07:16:03.181Z,96860.31
2018-10-18T07:18:30.824Z,96857.86
2018-10-18T07:20:58.641Z,96861.27
2018-10-18T07:23:26.114Z,96856.23
2018-10-18T07:25:53.659Z,96864.66
2018-10-18T07:28:21.272Z,96861.02
2018-10-18T07:30:48.784Z,96868.12
2018-10-18T07:33:16.470Z,96863.45
2018-10-18T07:35:44.052Z,96863.92
2018-10-18T07:38:11.632Z,96867.63
2018-10-18T07:40:39.181Z,96862.95
2018-10-18T07:43:06.760Z,96866.64
2018-10-18T07:45:34.472Z,96872.62
2018-10-18T07:48:02.047Z,96877.47
2018-10-18T07:50:29.720Z,96873.20
2018-10-18T07:52:57.334Z,96878.30
2018-10-18T07:55:25.098Z,96880.83
2018-10-18T07:57:52.713Z,96877.62
2018-10-18T08:00:20.492Z,96883.18
2018-10-18T08:02:48.062Z,96883.47
2018-10-18T08:05:15.531Z,96879.97
2018-10-18T08:07:43.057Z,96878.59
2018-10-18T08:10:18.660Z,96880.55
2018-10-18T08:12:46.155Z,96880.55
2018-10-18T08:15:15.011Z,96884.14
2018-10-18T08:17:43.203Z,96882.20
2018-10-18T08:20:12.665Z,96876.87
2018-10-18T08:22:41.085Z,96878.73
2018-10-18T08:25:08.418Z,96873.44
2018-10-18T08:27:36.136Z,96870.90
2018-10-18T08:30:04.393Z,96870.94
2018-10-18T08:32:31.770Z,96871.28
2018-10-18T08:34:59.129Z,96875.93
2018-10-18T08:37:26.546Z,96874.85
2018-10-18T08:39:54.445Z,96867.02
2018-10-18T08:42:21.876Z,96872.30
2018-10-18T08:44:49.203Z,96865.31
2018-10-18T08:47:16.531Z,96858.89
2018-10-18T08:49:43.991Z,96860.22
2018-10-18T08:52:11.381Z,96855.55
2018-10-18T08:56:03.513Z,96858.14
2018-10-18T08:58:30.973Z,96857.75
2018-10-18T09:00:58.350Z,96865.54
2018-10-18T09:03:25.799Z,96858.83
2018-10-18T09:05:53.153Z,96866.33
2018-10-18T09:08:20.516Z,96871.16
2018-10-18T09:10:47.843Z,96872.13
2018-10-18T09:13:15.206Z,96866.91
2018-10-18T09:15:42.524Z,96870.00
2018-10-18T09:18:09.825Z,96870.09
2018-10-18T09:20:37.144Z,96870.16
2018-10-18T09:23:04.770Z,96870.90
2018-10-18T09:25:32.073Z,96866.39
2018-10-18T09:27:59.785Z,96865.19
2018-10-18T09:30:27.520Z,96858.51
2018-10-18T09:32:54.948Z,96864.41
2018-10-18T09:35:23.209Z,96862.52
2018-10-18T09:37:50.470Z,96865.28
2018-10-18T09:40:17.833Z,96866.05
2018-10-18T09:42:45.166Z,96867.71
2018-10-18T09:45:12.695Z,96858.91
2018-10-18T09:47:39.980Z,96858.37
2018-10-18T09:50:07.862Z,96861.91
2018-10-18T09:52:35.390Z,96857.34
2018-10-18T09:55:02.753Z,96863.41
2018-10-18T09:57:30.045Z,96865.21
2018-10-18T09:59:57.399Z,96869.72
2018-10-18T10:02:30.478Z,96871.51
2018-10-18T10:04:57.784Z,96870.64
2018-10-18T10:07:25.184Z,96866.59
2018-10-18T10:09:52.507Z,96861.67
2018-10-18T10:12:19.916Z,96863.76
2018-10-18T10:14:47.438Z,96862.85
2018-10-18T10:17:14.843Z,96865.67
2018-10-18T10:19:42.215Z,96860.41
2018-10-18T10:22:09.507Z,96861.77
2018-10-18T10:24:36.888Z,96854.57
2018-10-18T10:27:04.290Z,96850.72
2018-10-18T10:29:31.630Z,96847.54
2018-10-18T10:31:58.950Z,96844.72
2018-10-18T10:34:26.318Z,96849.38
2018-10-18T10:36:53.643Z,96847.38
2018-10-18T10:39:20.978Z,96846.22
2018-10-18T10:41:48.346Z,96846.27
2018-10-18T10:44:15.788Z,96845.89
2018-10-18T10:46:43.095Z,96844.30
2018-10-18T10:49:10.404Z,96848.96
2018-10-18T10:51:37.807Z,96845.27
2018-10-18T10:54:05.700Z,96844.36
2018-10-18T10:56:32.973Z,96839.28
2018-10-18T10:59:01.384Z,96845.27
2018-10-18T11:01:28.658Z,96835.71
2018-10-18T11:04:00.200Z,96834.41
2018-10-18T11:06:28.320Z,96832.41
2018-10-18T11:08:56.311Z,96824.75
2018-10-18T11:11:24.404Z,96824.29
2018-10-18T11:13:51.740Z,96824.50
2018-10-18T11:16:19.075Z,96818.52
2018-10-18T11:18:46.332Z,96819.44
2018-10-18T11:21:15.005Z,96817.63
2018-10-18T11:23:42.292Z,96820.91
2018-10-18T11:26:09.669Z,96810.17
2018-10-18T11:28:36.964Z,96808.13
2018-10-18T11:31:04.357Z,96806.53
2018-10-18T11:33:31.725Z,96805.13
2018-10-18T11:36:01.024Z,96812.81
2018-10-18T11:38:28.524Z,96813.70
2018-10-18T11:40:55.861Z,96808.46
2018-10-18T11:43:23.238Z,96805.35
2018-10-18T11:45:50.535Z,96810.09
2018-10-18T11:48:17.814Z,96808.64
2018-10-18T11:50:45.228Z,96802.97
2018-10-18T11:53:12.542Z,96802.68
2018-10-18T11:55:39.900Z,96773.33
2018-10-18T11:58:08.121Z,96801.64
2018-10-18T12:00:35.436Z,96801.42
2018-10-18T12:03:02.798Z,96789.85
2018-10-18T12:05:30.105Z,96788.48
2018-10-18T12:07:57.464Z,96790.41
2018-10-18T12:10:24.867Z,96790.45
2018-10-18T12:12:52.186Z,96787.05
2018-10-18T12:17:59.166Z,96779.94
2018-10-18T12:20:26.504Z,96781.45
2018-10-18T12:22:53.949Z,96776.52
2018-10-18T12:25:21.337Z,96779.34
2018-10-18T12:27:48.706Z,96780.47
2018-10-18T12:30:16.011Z,96780.59
2018-10-18T12:32:43.306Z,96779.16
2018-10-18T12:35:10.667Z,96783.03
2018-10-18T12:37:37.985Z,96783.39
2018-10-18T12:40:06.704Z,96787.50
2018-10-18T12:42:34.586Z,96789.34
2018-10-18T12:45:01.932Z,96787.66
2018-10-18T12:47:29.359Z,96786.56
2018-10-18T12:49:56.752Z,96780.17
2018-10-18T12:52:24.064Z,96786.33
2018-10-18T12:54:51.480Z,96780.66
2018-10-18T12:57:18.782Z,96782.23
2018-10-18T12:59:46.104Z,96783.27
2018-10-18T13:02:13.518Z,96777.66
2018-10-18T13:04:40.674Z,96778.82
2018-10-18T13:07:08.036Z,96780.38
2018-10-18T13:09:35.457Z,96774.78
2018-10-18T13:12:02.778Z,96770.84
2018-10-18T13:14:34.852Z,96777.34
2018-10-18T13:17:02.348Z,96775.23
2018-10-18T13:19:29.710Z,96776.92
2018-10-18T13:21:57.069Z,96771.73
2018-10-18T13:24:24.449Z,96766.25
2018-10-18T13:26:51.808Z,96767.78
2018-10-18T13:29:19.088Z,96770.69
2018-10-18T13:31:46.653Z,96770.08
2018-10-18T13:34:14.123Z,96775.70
2018-10-18T13:36:41.416Z,96773.52
2018-10-18T13:39:11.568Z,96773.89
2018-10-18T13:41:38.825Z,96777.23
2018-10-18T13:44:06.232Z,96774.81
2018-10-18T13:46:33.754Z,96773.59
2018-10-18T13:49:01.140Z,96774.40
2018-10-18T13:51:28.508Z,96774.21
2018-10-18T13:53:55.870Z,96774.52
2018-10-18T13:56:23.241Z,96772.89
2018-10-18T13:58:50.521Z,96771.58
2018-10-18T14:01:17.883Z,96773.16
2018-10-18T14:03:45.167Z,96767.58
2018-10-18T14:06:12.464Z,96765.00
2018-10-18T14:08:39.776Z,96761.34
2018-10-18T14:11:07.050Z,96760.05
2018-10-18T14:13:34.382Z,96761.45
2018-10-18T14:16:01.710Z,96759.38
2018-10-18T14:18:29.077Z,96754.16
2018-10-18T14:20:56.386Z,96763.98
2018-10-18T14:23:23.737Z,96763.72
2018-10-18T14:25:51.133Z,96760.24
2018-10-18T14:28:18.500Z,96757.13
2018-10-18T14:33:25.530Z,96751.58
2018-10-18T14:35:52.907Z,96757.19
2018-10-18T14:39:24.127Z,96759.30
2018-10-18T14:41:51.589Z,96754.53
2018-10-18T14:44:18.890Z,96750.56
2018-10-18T14:46:46.192Z,96754.45
2018-10-18T14:49:13.512Z,96754.78
2018-10-18T14:51:41.062Z,96766.30
2018-10-18T14:54:08.428Z,96766.06
2018-10-18T14:56:35.716Z,96758.36
2018-10-18T14:59:03.076Z,96752.81
2018-10-18T15:01:30.395Z,96751.88
2018-10-18T15:03:57.706Z,96760.72
2018-10-18T15:06:25.156Z,96761.03
2018-10-18T15:08:52.465Z,96760.81
2018-10-18T15:11:19.767Z,96765.16
2018-10-18T15:13:47.041Z,96759.55
2018-10-18T15:16:14.328Z,96762.82
2018-10-18T15:18:41.669Z,96761.59
2018-10-18T15:21:09.262Z,96745.89
2018-10-18T15:23:36.582Z,96763.36
2018-10-18T15:26:04.210Z,96764.41
2018-10-18T15:28:31.574Z,96756.56
2018-10-18T15:30:58.878Z,96759.91
2018-10-18T15:33:26.167Z,96755.31
2018-10-18T15:35:53.479Z,96753.72
2018-10-18T15:38:20.942Z,96758.16
2018-10-18T15:40:48.133Z,96758.00
2018-10-18T15:43:15.478Z,96758.09
2018-10-18T15:45:42.775Z,96759.63
2018-10-18T15:48:10.065Z,96759.11
2018-10-18T15:50:39.013Z,96758.80
2018-10-18T15:53:07.817Z,96759.30
2018-10-18T15:55:38.651Z,96764.92
2018-10-18T15:58:09.015Z,96775.75
2018-10-18T16:00:38.310Z,96771.39
2018-10-18T16:03:05.820Z,96774.61
2018-10-18T16:05:33.517Z,96779.33
2018-10-18T16:08:03.307Z,96773.47
2018-10-18T16:10:31.856Z,96781.94
2018-10-18T16:12:59.482Z,96788.09
2018-10-18T16:15:28.249Z,96786.35
2018-10-18T16:17:58.393Z,96790.30
2018-10-18T16:20:25.804Z,96789.27
2018-10-18T16:22:54.467Z,96792.09
2018-10-18T16:25:21.745Z,96787.52
2018-10-18T16:27:49.603Z,96794.45
2018-10-18T16:30:17.959Z,96795.80
2018-10-18T16:32:46.294Z,96802.56
2018-10-18T16:35:27.407Z,96808.50
2018-10-18T16:37:56.516Z,96808.61
2018-10-18T16:40:24.258Z,96819.47
2018-10-18T16:42:55.035Z,96823.81
2018-10-18T16:45:24.750Z,96821.54
2018-10-18T16:52:38.741Z,96838.98
2018-10-18T16:55:07.292Z,96843.48
2018-10-18T16:57:34.931Z,96840.30
2018-10-18T17:00:02.704Z,96843.30
2018-10-18T17:02:31.873Z,96847.16
2018-10-18T17:05:00.551Z,96848.91
2018-10-18T17:07:30.039Z,96851.00
2018-10-18T17:09:57.602Z,96854.95
2018-10-18T17:12:25.106Z,96862.21
2018-10-18T17:14:55.563Z,96863.62
2018-10-18T17:17:23.091Z,96867.70
2018-10-18T17:19:51.077Z,96867.05
2018-10-18T17:22:20.927Z,96869.89
2018-10-18T17:24:49.979Z,96874.70
2018-10-18T17:27:19.973Z,96876.22
2018-10-18T17:29:47.368Z,96875.41
2018-10-18T17:32:15.134Z,96872.62
2018-10-18T17:34:44.703Z,96880.67
2018-10-18T17:37:12.867Z,96881.34
2018-10-18T17:39:40.732Z,96879.11
2018-10-18T17:42:10.495Z,96882.70
2018-10-18T17:44:40.170Z,96887.29
2018-10-18T17:47:09.632Z,96890.46
2018-10-18T17:49:37.263Z,96891.37
2018-10-18T17:52:05.376Z,96890.12
2018-10-18T17:54:33.022Z,96892.41
2018-10-18T17:57:00.457Z,96892.31
2018-10-18T17:59:28.084Z,96892.59
2018-10-18T18:01:56.407Z,96888.48
2018-10-18T18:04:23.919Z,96888.38
2018-10-18T18:06:51.399Z,96893.36
2018-10-18T18:09:19.891Z,96895.99
2018-10-18T18:11:48.273Z,96894.11
2018-10-18T18:14:16.232Z,96894.01
2018-10-18T18:16:45.642Z,96893.77
2018-10-18T18:19:15.279Z,96896.64
2018-10-18T18:21:43.694Z,96898.28
2018-10-18T18:24:11.173Z,96901.55
2018-10-18T18:26:45.265Z,96900.55
2018-10-18T18:29:06.448Z,96905.48
2018-10-18T18:31:34.791Z,96899.75
2018-10-18T18:34:03.421Z,96901.30
2018-10-18T18:36:33.120Z,96907.15
2018-10-18T18:39:02.567Z,96903.82
2018-10-18T18:41:30.254Z,96899.91
2018-10-18T18:43:57.918Z,96910.07
2018-10-18T18:46:25.169Z,96908.75
2018-10-18T18:48:52.558Z,96914.44
2018-10-18T18:51:20.340Z,96920.70
2018-10-18T18:53:48.373Z,96920.13
2018-10-18T18:56:16.406Z,96922.64
2018-10-18T18:58:43.992Z,96929.63
2018-10-18T19:08:10.216Z,96929.09
2018-10-18T19:10:37.607Z,96932.31
2018-10-18T19:13:06.338Z,96931.23
2018-10-18T19:15:33.834Z,96932.05
2018-10-18T19:18:03.104Z,96933.74
2018-10-18T19:20:30.604Z,96938.56
2018-10-18T19:22:59.291Z,96939.38
2018-10-18T19:25:27.012Z,96942.51
2018-10-18T19:27:54.526Z,96942.41
2018-10-18T19:30:24.266Z,96944.33
2018-10-18T19:32:53.074Z,96950.45
2018-10-18T19:35:22.746Z,96951.28
2018-10-18T19:37:50.259Z,96958.58
2018-10-18T19:40:18.428Z,96962.87
2018-10-18T19:42:46.373Z,96964.20
2018-10-18T19:45:13.852Z,96962.27
2018-10-18T19:47:42.422Z,96960.72
2018-10-18T19:50:10.201Z,96962.38
2018-10-18T19:52:37.921Z,96963.23
2018-10-18T19:55:06.020Z,96968.25
2018-10-18T19:57:33.487Z,96963.58
2018-10-18T20:00:01.300Z,96967.77
2018-10-18T20:02:28.605Z,96970.63
2018-10-18T20:04:56.886Z,96968.23
2018-10-18T20:07:24.376Z,96970.16
2018-10-18T20:09:51.915Z,96966.92
2018-10-18T20:12:19.618Z,96969.41
2018-10-18T20:14:47.046Z,96976.47
2018-10-18T20:17:14.510Z,96975.27
2018-10-18T20:19:42.402Z,96975.87
2018-10-18T20:22:11.526Z,96972.99
2018-10-18T20:24:38.982Z,96979.20
2018-10-18T20:27:06.709Z,96977.64
2018-10-18T20:29:34.062Z,96980.63
2018-10-18T20:32:02.241Z,96978.36
2018-10-18T20:34:29.686Z,96976.69
2018-10-18T20:36:57.160Z,96978.11
2018-10-18T20:39:24.776Z,96981.08
2018-10-18T20:41:52.296Z,96982.04
2018-10-18T20:44:20.507Z,96983.35
2018-10-18T20:46:48.629Z,96980.13
2018-10-18T20:49:16.177Z,96994.77
2018-10-18T20:51:43.620Z,96993.34
2018-10-18T20:54:11.123Z,96992.83
2018-10-18T20:56:39.580Z,96993.39
2018-10-18T20:59:08.295Z,96993.17
2018-10-18T21:01:35.785Z,96999.13
2018-10-18T21:04:04.609Z,96997.81
2018-10-18T21:06:32.199Z,97001.04
2018-10-18T21:08:59.531Z,96997.03
2018-10-18T21:11:28.389Z,97003.16
2018-10-18T21:13:56.682Z,97006.27
2018-10-18T21:16:23.960Z,97008.53
2018-10-18T21:18:51.385Z,97012.33
2018-10-18T21:21:19.770Z,97009.56
2018-10-18T21:23:47.136Z,97006.88
2018-10-18T21:26:14.569Z,96998.55
2018-10-18T21:28:42.042Z,97001.27
2018-10-18T21:31:10.317Z,96997.58
2018-10-18T21:33:37.844Z,96989.30
2018-10-18T21:36:06.274Z,96993.48
2018-10-18T21:38:33.563Z,96995.31
2018-10-18T21:41:02.497Z,96995.88
2018-10-18T21:43:29.913Z,97000.50
2018-10-18T21:45:59.514Z,97001.09
2018-10-18T21:48:28.202Z,97001.16
2018-10-18T21:50:55.799Z,96999.79
2018-10-18T21:53:23.168Z,96997.47
2018-10-18T21:55:51.745Z,96993.23
2018-10-18T21:58:19.820Z,96992.78
2018-10-18T22:00:48.084Z,96988.95
2018-10-18T22:03:15.642Z,96985.13
2018-10-18T22:05:42.856Z,96987.19
2018-10-18T22:08:11.451Z,96988.27
2018-10-18T22:10:38.797Z,96986.16
2018-10-18T22:13:06.294Z,96987.91
2018-10-18T22:15:35.870Z,96984.85
2018-10-18T22:18:05.358Z,96984.85
2018-10-18T22:20:33.507Z,96988.13
2018-10-18T22:23:01.015Z,96980.02
2018-10-18T22:25:28.470Z,96987.45
2018-10-18T22:27:55.992Z,96983.75
2018-10-18T22:30:23.498Z,96988.27
2018-10-18T22:32:50.845Z,96985.42
2018-10-18T22:35:18.190Z,96986.73
2018-10-18T22:37:47.266Z,96987.45
2018-10-18T22:40:14.744Z,96985.65
2018-10-18T22:42:42.234Z,96980.54
2018-10-18T22:45:11.587Z,96984.70
2018-10-18T22:47:38.958Z,96976.84
2018-10-18T22:50:06.531Z,96976.48
2018-10-18T22:52:36.121Z,96975.44
2018-10-18T22:55:05.491Z,96974.48
2018-10-18T22:57:33.911Z,96977.11
2018-10-18T23:00:01.281Z,96975.17
2018-10-18T23:02:28.531Z,96972.48
2018-10-18T23:05:07.723Z,96964.08
2018-10-18T23:07:35.541Z,96978.41
2018-10-18T23:10:05.846Z,96936.27
2018-10-18T23:12:33.273Z,96980.81
2018-10-18T23:15:01.636Z,96985.02
2018-10-18T23:17:31.176Z,96978.59
2018-10-18T23:19:58.724Z,96982.25
2018-10-18T23:22:26.293Z,96986.44
2018-10-18T23:24:53.712Z,96989.28
2018-10-18T23:27:20.524Z,96989.63
2018-10-18T23:29:50.850Z,96985.98
2018-10-18T23:32:19.290Z,96981.83
2018-10-18T23:34:51.010Z,96982.37
2018-10-18T23:37:18.740Z,96988.05
2018-10-18T23:39:46.495Z,96983.32
2018-10-18T23:42:14.084Z,96989.75
2018-10-18T23:44:41.539Z,96988.35
2018-10-18T23:47:12.811Z,96987.17
2018-10-18T23:49:42.501Z,96985.69
2018-10-18T23:52:15.370Z,96838.95
2018-10-18T23:54:44.368Z,96986.11
2018-10-18T23:57:11.663Z,96985.02
2018-10-18T23:59:42.353Z,96994.16
